sensor_id;sensor_type;location;lat;lon;timestamp;temperature;humidity
27439;DHT22;14887;51.252;7.470;2024-03-02T00:00:22;5.00;1.00
27439;DHT22;14887;51.252;7.470;2024-03-02T00:02:51;5.00;1.00
27439;DHT22;14887;51.252;7.470;2024-03-02T00:05:18;5.00;1.00
27439;DHT22;14887;51.252;7.470;2024-03-02T00:07:46;5.00;1.00
27439;DHT22;14887;51.252;7.470;2024-03-02T00:10:16;4.90;1.00
27439;DHT22;14887;51.252;7.470;2024-03-02T00:12:47;4.90;1.00
27439;DHT22;14887;51.252;7.470;2024-03-02T00:17:53;4.90;1.00
27439;DHT22;14887;51.252;7.470;2024-03-02T00:20:22;4.90;1.00
27439;DHT22;14887;51.252;7.470;2024-03-02T00:22:48;4.90;1.00
27439;DHT22;14887;51.252;7.470;2024-03-02T00:25:16;4.90;99.90
27439;DHT22;14887;51.252;7.470;2024-03-02T00:27:41;4.90;1.00
27439;DHT22;14887;51.252;7.470;2024-03-02T00:33:26;4.80;1.00
27439;DHT22;14887;51.252;7.470;2024-03-02T00:35:53;4.80;1.00
27439;DHT22;14887;51.252;7.470;2024-03-02T00:38:20;4.70;1.00
27439;DHT22;14887;51.252;7.470;2024-03-02T00:40:46;4.80;20.00
27439;DHT22;14887;51.252;7.470;2024-03-02T00:43:39;4.80;1.00
27439;DHT22;14887;51.252;7.470;2024-03-02T00:46:06;4.80;1.00
27439;DHT22;14887;51.252;7.470;2024-03-02T00:48:33;4.80;1.00
27439;DHT22;14887;51.252;7.470;2024-03-02T00:51:02;4.80;1.00
27439;DHT22;14887;51.252;7.470;2024-03-02T00:53:29;4.80;1.00
27439;DHT22;14887;51.252;7.470;2024-03-02T00:55:55;4.80;1.00
27439;DHT22;14887;51.252;7.470;2024-03-02T00:58:21;4.80;1.00
27439;DHT22;14887;51.252;7.470;2024-03-02T01:00:47;4.90;99.90
27439;DHT22;14887;51.252;7.470;2024-03-02T01:03:12;4.90;99.90
27439;DHT22;14887;51.252;7.470;2024-03-02T01:05:44;4.80;99.90
27439;DHT22;14887;51.252;7.470;2024-03-02T01:08:10;4.90;99.90
27439;DHT22;14887;51.252;7.470;2024-03-02T01:10:36;4.90;99.90
27439;DHT22;14887;51.252;7.470;2024-03-02T01:13:02;4.90;31.50
27439;DHT22;14887;51.252;7.470;2024-03-02T01:15:27;4.90;25.10
27439;DHT22;14887;51.252;7.470;2024-03-02T01:17:53;4.80;85.10
27439;DHT22;14887;51.252;7.470;2024-03-02T01:20:19;4.80;99.90
27439;DHT22;14887;51.252;7.470;2024-03-02T01:22:44;4.70;99.90
27439;DHT22;14887;51.252;7.470;2024-03-02T01:25:10;4.70;99.90
27439;DHT22;14887;51.252;7.470;2024-03-02T01:27:35;4.80;99.90
27439;DHT22;14887;51.252;7.470;2024-03-02T01:30:01;4.80;99.90
27439;DHT22;14887;51.252;7.470;2024-03-02T01:32:26;4.70;99.90
27439;DHT22;14887;51.252;7.470;2024-03-02T01:34:52;4.80;99.90
27439;DHT22;14887;51.252;7.470;2024-03-02T01:37:18;4.70;99.90
27439;DHT22;14887;51.252;7.470;2024-03-02T01:39:43;4.80;91.30
27439;DHT22;14887;51.252;7.470;2024-03-02T01:42:09;4.80;1.00
27439;DHT22;14887;51.252;7.470;2024-03-02T01:44:40;4.80;1.00
27439;DHT22;14887;51.252;7.470;2024-03-02T01:47:06;4.90;1.00
27439;DHT22;14887;51.252;7.470;2024-03-02T01:49:32;5.00;1.00
27439;DHT22;14887;51.252;7.470;2024-03-02T01:51:59;5.00;1.00
27439;DHT22;14887;51.252;7.470;2024-03-02T01:54:25;5.00;99.90
27439;DHT22;14887;51.252;7.470;2024-03-02T01:56:51;5.00;99.90
27439;DHT22;14887;51.252;7.470;2024-03-02T01:59:16;5.00;99.90
27439;DHT22;14887;51.252;7.470;2024-03-02T02:01:42;5.00;99.90
27439;DHT22;14887;51.252;7.470;2024-03-02T02:04:08;5.10;99.90
27439;DHT22;14887;51.252;7.470;2024-03-02T02:06:34;5.10;99.90
27439;DHT22;14887;51.252;7.470;2024-03-02T02:09:00;5.10;99.90
27439;DHT22;14887;51.252;7.470;2024-03-02T02:11:25;5.10;99.90
27439;DHT22;14887;51.252;7.470;2024-03-02T02:13:51;5.10;99.90
27439;DHT22;14887;51.252;7.470;2024-03-02T02:16:17;5.00;99.90
27439;DHT22;14887;51.252;7.470;2024-03-02T02:18:42;4.90;99.90
27439;DHT22;14887;51.252;7.470;2024-03-02T02:21:08;4.90;99.90
27439;DHT22;14887;51.252;7.470;2024-03-02T02:23:33;4.90;99.90
27439;DHT22;14887;51.252;7.470;2024-03-02T02:25:59;4.90;99.90
27439;DHT22;14887;51.252;7.470;2024-03-02T02:28:25;4.90;99.90
27439;DHT22;14887;51.252;7.470;2024-03-02T02:30:50;4.90;99.90
27439;DHT22;14887;51.252;7.470;2024-03-02T02:33:16;5.00;99.90
27439;DHT22;14887;51.252;7.470;2024-03-02T02:35:41;5.00;99.90
27439;DHT22;14887;51.252;7.470;2024-03-02T02:38:07;5.00;99.90
27439;DHT22;14887;51.252;7.470;2024-03-02T02:40:32;5.00;99.90
27439;DHT22;14887;51.252;7.470;2024-03-02T02:42:58;5.10;77.70
27439;DHT22;14887;51.252;7.470;2024-03-02T02:45:26;5.00;99.90
27439;DHT22;14887;51.252;7.470;2024-03-02T02:47:52;5.00;99.90
27439;DHT22;14887;51.252;7.470;2024-03-02T02:50:17;5.00;63.80
27439;DHT22;14887;51.252;7.470;2024-03-02T02:52:43;5.00;43.60
27439;DHT22;14887;51.252;7.470;2024-03-02T02:55:10;5.00;27.20
27439;DHT22;14887;51.252;7.470;2024-03-02T02:57:38;5.10;1.00
27439;DHT22;14887;51.252;7.470;2024-03-02T03:00:14;5.10;1.00
27439;DHT22;14887;51.252;7.470;2024-03-02T03:02:45;5.10;1.00
27439;DHT22;14887;51.252;7.470;2024-03-02T03:05:13;5.10;1.00
27439;DHT22;14887;51.252;7.470;2024-03-02T03:07:40;5.10;1.00
27439;DHT22;14887;51.252;7.470;2024-03-02T03:10:08;5.10;1.00
27439;DHT22;14887;51.252;7.470;2024-03-02T03:12:35;4.90;1.00
27439;DHT22;14887;51.252;7.470;2024-03-02T03:15:01;5.00;1.00
27439;DHT22;14887;51.252;7.470;2024-03-02T03:17:27;5.00;1.00
27439;DHT22;14887;51.252;7.470;2024-03-02T03:19:56;5.00;1.00
27439;DHT22;14887;51.252;7.470;2024-03-02T03:22:35;5.00;1.00
27439;DHT22;14887;51.252;7.470;2024-03-02T03:25:03;5.00;1.00
27439;DHT22;14887;51.252;7.470;2024-03-02T03:27:30;5.00;1.00
27439;DHT22;14887;51.252;7.470;2024-03-02T03:29:55;4.90;1.00
27439;DHT22;14887;51.252;7.470;2024-03-02T03:32:23;5.00;1.00
27439;DHT22;14887;51.252;7.470;2024-03-02T03:34:49;4.90;1.00
27439;DHT22;14887;51.252;7.470;2024-03-02T03:37:19;4.90;1.00
27439;DHT22;14887;51.252;7.470;2024-03-02T03:39:46;4.80;1.00
27439;DHT22;14887;51.252;7.470;2024-03-02T03:42:12;4.90;1.00
27439;DHT22;14887;51.252;7.470;2024-03-02T03:44:42;4.90;20.70
27439;DHT22;14887;51.252;7.470;2024-03-02T03:47:07;4.90;29.70
27439;DHT22;14887;51.252;7.470;2024-03-02T03:49:33;5.00;20.80
27439;DHT22;14887;51.252;7.470;2024-03-02T03:52:00;5.00;1.00
27439;DHT22;14887;51.252;7.470;2024-03-02T03:54:26;5.10;1.00
27439;DHT22;14887;51.252;7.470;2024-03-02T03:56:51;5.20;1.00
27439;DHT22;14887;51.252;7.470;2024-03-02T03:59:18;5.30;1.00
27439;DHT22;14887;51.252;7.470;2024-03-02T04:01:44;5.40;1.00
27439;DHT22;14887;51.252;7.470;2024-03-02T04:04:09;5.40;1.00
27439;DHT22;14887;51.252;7.470;2024-03-02T04:06:36;5.50;1.00
27439;DHT22;14887;51.252;7.470;2024-03-02T04:09:02;5.60;1.00
27439;DHT22;14887;51.252;7.470;2024-03-02T04:11:31;5.60;1.00
27439;DHT22;14887;51.252;7.470;2024-03-02T04:13:57;5.50;1.00
27439;DHT22;14887;51.252;7.470;2024-03-02T04:16:23;5.50;1.00
27439;DHT22;14887;51.252;7.470;2024-03-02T04:18:49;5.40;1.00
27439;DHT22;14887;51.252;7.470;2024-03-02T04:21:15;5.30;1.00
27439;DHT22;14887;51.252;7.470;2024-03-02T04:23:40;5.30;1.00
27439;DHT22;14887;51.252;7.470;2024-03-02T04:26:06;5.30;1.00
27439;DHT22;14887;51.252;7.470;2024-03-02T04:28:33;5.30;1.00
27439;DHT22;14887;51.252;7.470;2024-03-02T04:31:00;5.40;1.00
27439;DHT22;14887;51.252;7.470;2024-03-02T04:33:27;5.40;1.00
27439;DHT22;14887;51.252;7.470;2024-03-02T04:35:54;5.40;1.00
27439;DHT22;14887;51.252;7.470;2024-03-02T04:38:24;5.40;1.00
27439;DHT22;14887;51.252;7.470;2024-03-02T04:40:50;5.40;1.00
27439;DHT22;14887;51.252;7.470;2024-03-02T04:43:17;5.50;1.00
27439;DHT22;14887;51.252;7.470;2024-03-02T04:45:43;5.50;1.00
27439;DHT22;14887;51.252;7.470;2024-03-02T04:48:09;5.50;1.00
27439;DHT22;14887;51.252;7.470;2024-03-02T04:50:35;5.50;1.00
27439;DHT22;14887;51.252;7.470;2024-03-02T04:53:00;5.40;1.00
27439;DHT22;14887;51.252;7.470;2024-03-02T04:55:28;5.30;1.00
27439;DHT22;14887;51.252;7.470;2024-03-02T04:57:53;5.30;1.00
27439;DHT22;14887;51.252;7.470;2024-03-02T05:00:21;5.20;1.00
27439;DHT22;14887;51.252;7.470;2024-03-02T05:02:47;5.10;1.00
27439;DHT22;14887;51.252;7.470;2024-03-02T05:05:14;5.00;21.80
27439;DHT22;14887;51.252;7.470;2024-03-02T05:07:43;4.90;99.90
27439;DHT22;14887;51.252;7.470;2024-03-02T05:10:11;5.00;99.90
27439;DHT22;14887;51.252;7.470;2024-03-02T05:12:37;4.90;99.90
27439;DHT22;14887;51.252;7.470;2024-03-02T05:15:17;4.90;99.90
27439;DHT22;14887;51.252;7.470;2024-03-02T05:17:43;4.90;99.90
27439;DHT22;14887;51.252;7.470;2024-03-02T05:20:09;4.90;99.90
27439;DHT22;14887;51.252;7.470;2024-03-02T05:22:36;4.90;99.90
27439;DHT22;14887;51.252;7.470;2024-03-02T05:25:05;4.90;99.90
27439;DHT22;14887;51.252;7.470;2024-03-02T05:27:32;4.90;99.90
27439;DHT22;14887;51.252;7.470;2024-03-02T05:29:59;4.90;99.90
27439;DHT22;14887;51.252;7.470;2024-03-02T05:32:25;4.80;1.00
27439;DHT22;14887;51.252;7.470;2024-03-02T05:34:50;4.80;1.00
27439;DHT22;14887;51.252;7.470;2024-03-02T05:37:18;4.80;1.00
27439;DHT22;14887;51.252;7.470;2024-03-02T05:39:46;4.80;1.00
27439;DHT22;14887;51.252;7.470;2024-03-02T05:42:13;4.80;1.00
27439;DHT22;14887;51.252;7.470;2024-03-02T05:44:39;4.80;1.00
27439;DHT22;14887;51.252;7.470;2024-03-02T05:47:05;4.80;1.00
27439;DHT22;14887;51.252;7.470;2024-03-02T05:49:34;4.70;1.00
27439;DHT22;14887;51.252;7.470;2024-03-02T05:52:00;4.60;1.00
27439;DHT22;14887;51.252;7.470;2024-03-02T05:54:28;4.50;93.00
27439;DHT22;14887;51.252;7.470;2024-03-02T05:56:55;4.50;99.90
27439;DHT22;14887;51.252;7.470;2024-03-02T05:59:29;4.40;99.90
27439;DHT22;14887;51.252;7.470;2024-03-02T06:01:54;4.40;99.90
27439;DHT22;14887;51.252;7.470;2024-03-02T06:04:26;4.40;99.90
27439;DHT22;14887;51.252;7.470;2024-03-02T06:06:53;4.40;99.90
27439;DHT22;14887;51.252;7.470;2024-03-02T06:09:19;4.30;1.00
27439;DHT22;14887;51.252;7.470;2024-03-02T06:11:45;4.30;1.00
27439;DHT22;14887;51.252;7.470;2024-03-02T06:14:11;4.30;1.00
27439;DHT22;14887;51.252;7.470;2024-03-02T06:16:36;4.30;1.00
27439;DHT22;14887;51.252;7.470;2024-03-02T06:19:03;4.40;1.00
27439;DHT22;14887;51.252;7.470;2024-03-02T06:21:28;4.30;1.00
27439;DHT22;14887;51.252;7.470;2024-03-02T06:23:55;4.20;1.00
27439;DHT22;14887;51.252;7.470;2024-03-02T06:26:22;4.20;33.20
27439;DHT22;14887;51.252;7.470;2024-03-02T06:28:52;4.30;1.00
27439;DHT22;14887;51.252;7.470;2024-03-02T06:31:17;4.20;99.90
27439;DHT22;14887;51.252;7.470;2024-03-02T06:33:46;4.20;99.90
27439;DHT22;14887;51.252;7.470;2024-03-02T06:36:12;4.30;99.90
27439;DHT22;14887;51.252;7.470;2024-03-02T06:38:38;4.30;99.90
27439;DHT22;14887;51.252;7.470;2024-03-02T06:41:08;4.20;1.00
27439;DHT22;14887;51.252;7.470;2024-03-02T06:43:33;4.30;26.90
27439;DHT22;14887;51.252;7.470;2024-03-02T06:45:59;4.40;1.00
27439;DHT22;14887;51.252;7.470;2024-03-02T06:48:26;4.40;1.00
27439;DHT22;14887;51.252;7.470;2024-03-02T06:50:55;4.40;1.00
27439;DHT22;14887;51.252;7.470;2024-03-02T06:53:22;4.40;1.00
27439;DHT22;14887;51.252;7.470;2024-03-02T06:55:47;4.40;1.00
27439;DHT22;14887;51.252;7.470;2024-03-02T06:58:14;4.40;1.00
27439;DHT22;14887;51.252;7.470;2024-03-02T07:00:41;4.60;1.00
27439;DHT22;14887;51.252;7.470;2024-03-02T07:03:07;4.60;1.00
27439;DHT22;14887;51.252;7.470;2024-03-02T07:05:36;4.70;99.90
27439;DHT22;14887;51.252;7.470;2024-03-02T07:08:01;4.80;99.90
27439;DHT22;14887;51.252;7.470;2024-03-02T07:10:29;4.70;48.60
27439;DHT22;14887;51.252;7.470;2024-03-02T07:12:54;4.90;1.00
27439;DHT22;14887;51.252;7.470;2024-03-02T07:15:20;5.00;1.00
27439;DHT22;14887;51.252;7.470;2024-03-02T07:17:52;5.00;1.00
27439;DHT22;14887;51.252;7.470;2024-03-02T07:20:17;5.00;1.00
27439;DHT22;14887;51.252;7.470;2024-03-02T07:22:43;5.00;1.00
27439;DHT22;14887;51.252;7.470;2024-03-02T07:25:10;5.10;1.00
27439;DHT22;14887;51.252;7.470;2024-03-02T07:27:36;5.10;1.00
27439;DHT22;14887;51.252;7.470;2024-03-02T07:30:03;5.10;1.00
27439;DHT22;14887;51.252;7.470;2024-03-02T07:32:29;5.10;1.00
27439;DHT22;14887;51.252;7.470;2024-03-02T07:34:55;5.10;1.00
27439;DHT22;14887;51.252;7.470;2024-03-02T07:37:22;5.20;1.00
27439;DHT22;14887;51.252;7.470;2024-03-02T07:39:50;5.20;1.00
27439;DHT22;14887;51.252;7.470;2024-03-02T07:42:17;5.30;1.00
27439;DHT22;14887;51.252;7.470;2024-03-02T07:44:48;5.30;1.00
27439;DHT22;14887;51.252;7.470;2024-03-02T07:47:16;5.40;99.90
27439;DHT22;14887;51.252;7.470;2024-03-02T07:49:45;5.50;99.90
27439;DHT22;14887;51.252;7.470;2024-03-02T07:52:12;5.50;99.90
27439;DHT22;14887;51.252;7.470;2024-03-02T07:54:38;5.60;99.90
27439;DHT22;14887;51.252;7.470;2024-03-02T07:57:04;6.00;99.90
27439;DHT22;14887;51.252;7.470;2024-03-02T07:59:29;6.70;1.00
27439;DHT22;14887;51.252;7.470;2024-03-02T08:01:55;7.70;99.90
27439;DHT22;14887;51.252;7.470;2024-03-02T08:04:21;8.50;99.90
27439;DHT22;14887;51.252;7.470;2024-03-02T08:06:46;8.90;1.00
27439;DHT22;14887;51.252;7.470;2024-03-02T08:09:12;9.10;1.00
27439;DHT22;14887;51.252;7.470;2024-03-02T08:11:38;9.20;1.00
27439;DHT22;14887;51.252;7.470;2024-03-02T08:14:05;9.40;1.00
27439;DHT22;14887;51.252;7.470;2024-03-02T08:16:31;9.60;1.00
27439;DHT22;14887;51.252;7.470;2024-03-02T08:18:59;9.40;1.00
27439;DHT22;14887;51.252;7.470;2024-03-02T08:21:26;9.80;1.00
27439;DHT22;14887;51.252;7.470;2024-03-02T08:23:52;10.20;1.00
27439;DHT22;14887;51.252;7.470;2024-03-02T08:26:17;10.10;1.00
27439;DHT22;14887;51.252;7.470;2024-03-02T08:28:44;10.20;1.00
27439;DHT22;14887;51.252;7.470;2024-03-02T08:31:10;10.40;1.00
27439;DHT22;14887;51.252;7.470;2024-03-02T08:33:36;10.40;1.00
27439;DHT22;14887;51.252;7.470;2024-03-02T08:36:03;10.40;1.00
27439;DHT22;14887;51.252;7.470;2024-03-02T08:38:31;10.50;1.00
27439;DHT22;14887;51.252;7.470;2024-03-02T08:40:56;10.40;1.00
27439;DHT22;14887;51.252;7.470;2024-03-02T08:43:22;10.70;1.00
27439;DHT22;14887;51.252;7.470;2024-03-02T08:45:48;10.70;1.00
27439;DHT22;14887;51.252;7.470;2024-03-02T08:48:13;10.70;1.00
27439;DHT22;14887;51.252;7.470;2024-03-02T08:50:39;11.00;1.00
27439;DHT22;14887;51.252;7.470;2024-03-02T08:53:04;11.30;1.00
27439;DHT22;14887;51.252;7.470;2024-03-02T08:55:30;11.40;1.00
27439;DHT22;14887;51.252;7.470;2024-03-02T08:57:56;11.60;1.00
27439;DHT22;14887;51.252;7.470;2024-03-02T09:00:22;11.90;1.00
27439;DHT22;14887;51.252;7.470;2024-03-02T09:02:48;11.90;1.00
27439;DHT22;14887;51.252;7.470;2024-03-02T09:05:14;11.90;1.00
27439;DHT22;14887;51.252;7.470;2024-03-02T09:07:40;12.00;1.00
27439;DHT22;14887;51.252;7.470;2024-03-02T09:10:06;11.90;1.00
27439;DHT22;14887;51.252;7.470;2024-03-02T09:12:33;12.10;1.00
27439;DHT22;14887;51.252;7.470;2024-03-02T09:15:00;12.20;1.00
27439;DHT22;14887;51.252;7.470;2024-03-02T09:17:27;12.30;1.00
27439;DHT22;14887;51.252;7.470;2024-03-02T09:19:52;12.40;1.00
27439;DHT22;14887;51.252;7.470;2024-03-02T09:22:19;12.50;1.00
27439;DHT22;14887;51.252;7.470;2024-03-02T09:24:45;12.60;1.00
27439;DHT22;14887;51.252;7.470;2024-03-02T09:27:11;12.70;1.00
27439;DHT22;14887;51.252;7.470;2024-03-02T09:29:36;12.40;1.00
27439;DHT22;14887;51.252;7.470;2024-03-02T09:32:02;12.20;1.00
27439;DHT22;14887;51.252;7.470;2024-03-02T09:34:28;12.20;1.00
27439;DHT22;14887;51.252;7.470;2024-03-02T09:36:54;12.40;1.00
27439;DHT22;14887;51.252;7.470;2024-03-02T09:39:19;12.40;1.00
27439;DHT22;14887;51.252;7.470;2024-03-02T09:41:45;12.80;1.00
27439;DHT22;14887;51.252;7.470;2024-03-02T09:44:12;12.60;1.00
27439;DHT22;14887;51.252;7.470;2024-03-02T09:46:37;12.80;1.00
27439;DHT22;14887;51.252;7.470;2024-03-02T09:49:04;12.80;1.00
27439;DHT22;14887;51.252;7.470;2024-03-02T09:51:30;12.30;1.00
27439;DHT22;14887;51.252;7.470;2024-03-02T09:53:56;12.40;1.00
27439;DHT22;14887;51.252;7.470;2024-03-02T09:56:21;12.30;1.00
27439;DHT22;14887;51.252;7.470;2024-03-02T09:58:47;12.40;1.00
27439;DHT22;14887;51.252;7.470;2024-03-02T10:01:13;12.30;1.00
27439;DHT22;14887;51.252;7.470;2024-03-02T10:03:39;12.30;1.00
27439;DHT22;14887;51.252;7.470;2024-03-02T10:06:24;12.20;1.00
27439;DHT22;14887;51.252;7.470;2024-03-02T10:08:50;12.20;1.00
27439;DHT22;14887;51.252;7.470;2024-03-02T10:11:29;12.30;1.00
27439;DHT22;14887;51.252;7.470;2024-03-02T10:14:07;12.40;1.00
27439;DHT22;14887;51.252;7.470;2024-03-02T10:16:37;12.10;1.00
27439;DHT22;14887;51.252;7.470;2024-03-02T10:19:19;12.40;1.00
27439;DHT22;14887;51.252;7.470;2024-03-02T10:21:54;12.20;1.00
27439;DHT22;14887;51.252;7.470;2024-03-02T10:24:21;12.70;1.00
27439;DHT22;14887;51.252;7.470;2024-03-02T10:26:48;12.90;1.00
27439;DHT22;14887;51.252;7.470;2024-03-02T10:29:13;13.30;1.00
27439;DHT22;14887;51.252;7.470;2024-03-02T10:31:40;12.70;1.00
27439;DHT22;14887;51.252;7.470;2024-03-02T10:34:07;12.70;1.00
27439;DHT22;14887;51.252;7.470;2024-03-02T10:36:34;12.40;99.90
27439;DHT22;14887;51.252;7.470;2024-03-02T10:39:06;12.40;99.90
27439;DHT22;14887;51.252;7.470;2024-03-02T10:41:34;12.40;99.90
27439;DHT22;14887;51.252;7.470;2024-03-02T10:44:11;12.40;99.90
27439;DHT22;14887;51.252;7.470;2024-03-02T10:46:37;12.60;99.90
27439;DHT22;14887;51.252;7.470;2024-03-02T10:49:04;12.50;99.90
27439;DHT22;14887;51.252;7.470;2024-03-02T10:51:32;12.60;99.90
27439;DHT22;14887;51.252;7.470;2024-03-02T10:53:59;12.90;99.90
27439;DHT22;14887;51.252;7.470;2024-03-02T10:56:39;12.60;99.90
27439;DHT22;14887;51.252;7.470;2024-03-02T10:59:32;12.80;99.90
27439;DHT22;14887;51.252;7.470;2024-03-02T11:02:00;13.10;99.90
27439;DHT22;14887;51.252;7.470;2024-03-02T11:04:28;13.00;99.90
27439;DHT22;14887;51.252;7.470;2024-03-02T11:07:06;13.10;99.90
27439;DHT22;14887;51.252;7.470;2024-03-02T11:09:41;13.00;99.90
27439;DHT22;14887;51.252;7.470;2024-03-02T11:12:13;13.10;99.90
27439;DHT22;14887;51.252;7.470;2024-03-02T11:14:42;13.10;99.90
27439;DHT22;14887;51.252;7.470;2024-03-02T11:17:09;13.40;99.90
27439;DHT22;14887;51.252;7.470;2024-03-02T11:19:38;13.50;99.90
27439;DHT22;14887;51.252;7.470;2024-03-02T11:22:04;13.70;99.90
27439;DHT22;14887;51.252;7.470;2024-03-02T11:24:30;13.90;99.90
27439;DHT22;14887;51.252;7.470;2024-03-02T11:26:59;13.80;99.90
27439;DHT22;14887;51.252;7.470;2024-03-02T11:32:05;14.00;99.90
27439;DHT22;14887;51.252;7.470;2024-03-02T11:34:33;14.00;99.90
27439;DHT22;14887;51.252;7.470;2024-03-02T11:37:02;14.10;99.90
27439;DHT22;14887;51.252;7.470;2024-03-02T11:39:28;14.20;99.90
27439;DHT22;14887;51.252;7.470;2024-03-02T11:41:56;14.50;99.90
27439;DHT22;14887;51.252;7.470;2024-03-02T11:44:22;14.20;99.90
27439;DHT22;14887;51.252;7.470;2024-03-02T11:47:02;14.60;99.90
27439;DHT22;14887;51.252;7.470;2024-03-02T11:49:51;14.40;99.90
27439;DHT22;14887;51.252;7.470;2024-03-02T11:52:20;14.10;99.90
27439;DHT22;14887;51.252;7.470;2024-03-02T11:54:51;14.10;99.90
27439;DHT22;14887;51.252;7.470;2024-03-02T11:57:21;14.10;99.90
27439;DHT22;14887;51.252;7.470;2024-03-02T11:59:50;14.30;99.90
27439;DHT22;14887;51.252;7.470;2024-03-02T12:02:21;14.30;99.90
27439;DHT22;14887;51.252;7.470;2024-03-02T12:04:48;14.30;99.90
27439;DHT22;14887;51.252;7.470;2024-03-02T12:07:24;14.40;99.90
27439;DHT22;14887;51.252;7.470;2024-03-02T12:10:00;14.40;99.90
27439;DHT22;14887;51.252;7.470;2024-03-02T12:12:30;13.90;99.90
27439;DHT22;14887;51.252;7.470;2024-03-02T12:14:56;13.60;99.90
27439;DHT22;14887;51.252;7.470;2024-03-02T12:17:23;13.60;99.90
27439;DHT22;14887;51.252;7.470;2024-03-02T12:19:49;13.90;99.90
27439;DHT22;14887;51.252;7.470;2024-03-02T12:22:15;13.90;99.90
27439;DHT22;14887;51.252;7.470;2024-03-02T12:24:41;13.40;99.90
27439;DHT22;14887;51.252;7.470;2024-03-02T12:27:11;13.00;99.90
27439;DHT22;14887;51.252;7.470;2024-03-02T12:29:38;13.60;99.90
27439;DHT22;14887;51.252;7.470;2024-03-02T12:32:05;14.50;99.90
27439;DHT22;14887;51.252;7.470;2024-03-02T12:34:31;14.60;99.90
27439;DHT22;14887;51.252;7.470;2024-03-02T12:36:57;15.00;99.90
27439;DHT22;14887;51.252;7.470;2024-03-02T12:39:22;15.20;99.90
27439;DHT22;14887;51.252;7.470;2024-03-02T12:41:49;15.50;99.90
27439;DHT22;14887;51.252;7.470;2024-03-02T12:44:19;15.30;99.90
27439;DHT22;14887;51.252;7.470;2024-03-02T12:46:46;15.20;99.90
27439;DHT22;14887;51.252;7.470;2024-03-02T12:49:16;14.60;99.90
27439;DHT22;14887;51.252;7.470;2024-03-02T12:51:42;14.50;99.90
27439;DHT22;14887;51.252;7.470;2024-03-02T12:54:08;14.30;99.90
27439;DHT22;14887;51.252;7.470;2024-03-02T12:56:36;14.00;99.90
27439;DHT22;14887;51.252;7.470;2024-03-02T12:59:01;14.10;99.90
27439;DHT22;14887;51.252;7.470;2024-03-02T13:01:27;14.40;99.90
27439;DHT22;14887;51.252;7.470;2024-03-02T13:03:53;14.60;99.90
27439;DHT22;14887;51.252;7.470;2024-03-02T13:06:23;14.70;99.90
27439;DHT22;14887;51.252;7.470;2024-03-02T13:08:49;14.80;99.90
27439;DHT22;14887;51.252;7.470;2024-03-02T13:11:16;14.90;99.90
27439;DHT22;14887;51.252;7.470;2024-03-02T13:13:42;14.90;99.90
27439;DHT22;14887;51.252;7.470;2024-03-02T13:16:09;14.40;99.90
27439;DHT22;14887;51.252;7.470;2024-03-02T13:18:35;13.90;99.90
27439;DHT22;14887;51.252;7.470;2024-03-02T13:21:00;13.80;99.90
27439;DHT22;14887;51.252;7.470;2024-03-02T13:23:29;13.70;99.90
27439;DHT22;14887;51.252;7.470;2024-03-02T13:25:58;13.70;99.90
27439;DHT22;14887;51.252;7.470;2024-03-02T13:28:27;13.50;99.90
27439;DHT22;14887;51.252;7.470;2024-03-02T13:30:53;13.60;99.90
27439;DHT22;14887;51.252;7.470;2024-03-02T13:33:19;13.40;99.90
27439;DHT22;14887;51.252;7.470;2024-03-02T13:35:51;13.20;99.90
27439;DHT22;14887;51.252;7.470;2024-03-02T13:38:23;13.00;99.90
27439;DHT22;14887;51.252;7.470;2024-03-02T13:40:49;12.80;99.90
27439;DHT22;14887;51.252;7.470;2024-03-02T13:43:18;12.70;99.90
27439;DHT22;14887;51.252;7.470;2024-03-02T13:45:49;12.60;99.90
27439;DHT22;14887;51.252;7.470;2024-03-02T13:48:17;12.50;99.90
27439;DHT22;14887;51.252;7.470;2024-03-02T13:50:46;12.60;99.90
27439;DHT22;14887;51.252;7.470;2024-03-02T13:53:11;12.90;99.90
27439;DHT22;14887;51.252;7.470;2024-03-02T13:55:37;13.30;99.90
27439;DHT22;14887;51.252;7.470;2024-03-02T13:58:04;13.40;99.90
27439;DHT22;14887;51.252;7.470;2024-03-02T14:00:30;13.40;99.90
27439;DHT22;14887;51.252;7.470;2024-03-02T14:02:56;13.60;99.90
27439;DHT22;14887;51.252;7.470;2024-03-02T14:05:21;13.90;99.90
27439;DHT22;14887;51.252;7.470;2024-03-02T14:07:47;14.00;99.90
27439;DHT22;14887;51.252;7.470;2024-03-02T14:10:13;13.90;99.90
27439;DHT22;14887;51.252;7.470;2024-03-02T14:12:41;14.00;99.90
27439;DHT22;14887;51.252;7.470;2024-03-02T14:15:07;13.70;99.90
27439;DHT22;14887;51.252;7.470;2024-03-02T14:17:33;13.50;99.90
27439;DHT22;14887;51.252;7.470;2024-03-02T14:19:59;13.20;99.90
27439;DHT22;14887;51.252;7.470;2024-03-02T14:22:26;13.00;99.90
27439;DHT22;14887;51.252;7.470;2024-03-02T14:24:51;12.90;99.90
27439;DHT22;14887;51.252;7.470;2024-03-02T14:27:17;13.00;99.90
27439;DHT22;14887;51.252;7.470;2024-03-02T14:29:43;13.20;99.90
27439;DHT22;14887;51.252;7.470;2024-03-02T14:32:09;13.40;99.90
27439;DHT22;14887;51.252;7.470;2024-03-02T14:34:35;13.50;99.90
27439;DHT22;14887;51.252;7.470;2024-03-02T14:37:00;13.30;99.90
27439;DHT22;14887;51.252;7.470;2024-03-02T14:39:27;13.30;99.90
27439;DHT22;14887;51.252;7.470;2024-03-02T14:41:52;13.10;99.90
27439;DHT22;14887;51.252;7.470;2024-03-02T14:44:21;13.10;99.90
27439;DHT22;14887;51.252;7.470;2024-03-02T14:46:48;12.90;99.90
27439;DHT22;14887;51.252;7.470;2024-03-02T14:49:14;12.70;99.90
27439;DHT22;14887;51.252;7.470;2024-03-02T14:51:39;12.50;99.90
27439;DHT22;14887;51.252;7.470;2024-03-02T14:54:05;12.40;99.90
27439;DHT22;14887;51.252;7.470;2024-03-02T14:56:30;12.30;99.90
27439;DHT22;14887;51.252;7.470;2024-03-02T14:58:56;12.30;99.90
27439;DHT22;14887;51.252;7.470;2024-03-02T15:01:22;12.30;99.90
27439;DHT22;14887;51.252;7.470;2024-03-02T15:03:51;12.50;99.90
27439;DHT22;14887;51.252;7.470;2024-03-02T15:06:17;12.80;99.90
27439;DHT22;14887;51.252;7.470;2024-03-02T15:08:43;12.80;99.90
27439;DHT22;14887;51.252;7.470;2024-03-02T15:11:13;12.90;99.90
27439;DHT22;14887;51.252;7.470;2024-03-02T15:13:39;12.90;99.90
27439;DHT22;14887;51.252;7.470;2024-03-02T15:16:05;12.90;99.90
27439;DHT22;14887;51.252;7.470;2024-03-02T15:18:31;13.00;99.90
27439;DHT22;14887;51.252;7.470;2024-03-02T15:20:57;13.40;99.90
27439;DHT22;14887;51.252;7.470;2024-03-02T15:23:22;13.70;99.90
27439;DHT22;14887;51.252;7.470;2024-03-02T15:25:48;14.20;99.90
27439;DHT22;14887;51.252;7.470;2024-03-02T15:28:13;14.50;99.90
27439;DHT22;14887;51.252;7.470;2024-03-02T15:30:39;15.20;99.90
27439;DHT22;14887;51.252;7.470;2024-03-02T15:33:05;14.90;99.90
27439;DHT22;14887;51.252;7.470;2024-03-02T15:35:30;14.50;99.90
27439;DHT22;14887;51.252;7.470;2024-03-02T15:37:56;14.20;99.90
27439;DHT22;14887;51.252;7.470;2024-03-02T15:40:23;14.40;99.90
27439;DHT22;14887;51.252;7.470;2024-03-02T15:42:48;14.30;99.90
27439;DHT22;14887;51.252;7.470;2024-03-02T15:45:15;13.90;99.90
27439;DHT22;14887;51.252;7.470;2024-03-02T15:47:41;13.50;99.90
27439;DHT22;14887;51.252;7.470;2024-03-02T15:50:07;13.20;99.90
27439;DHT22;14887;51.252;7.470;2024-03-02T15:52:33;13.20;99.90